createdAt,value
2022-12-05T00:03:45.540Z,27.20
2022-12-05T00:08:48.465Z,22.93
2022-12-05T00:13:52.410Z,25.93
2022-12-05T00:18:55.971Z,24.73
2022-12-05T00:23:59.446Z,23.13
2022-12-05T00:29:01.740Z,27.10
2022-12-05T00:34:03.945Z,27.27
2022-12-05T00:39:09.068Z,26.02
2022-12-05T00:44:13.208Z,23.85
2022-12-05T00:49:15.358Z,27.47
2022-12-05T00:54:17.881Z,24.45
2022-12-05T01:04:25.019Z,21.97
2022-12-05T01:09:27.663Z,22.23
2022-12-05T01:19:33.193Z,25.07
2022-12-05T01:24:35.272Z,23.40
2022-12-05T01:29:37.842Z,20.58
2022-12-05T01:39:42.468Z,19.07
2022-12-05T01:49:47.054Z,18.80
2022-12-05T01:54:52.016Z,23.25
2022-12-05T02:00:00.339Z,22.97
2022-12-05T02:05:05.751Z,24.63
2022-12-05T02:10:08.401Z,20.30
2022-12-05T02:15:19.051Z,27.37
2022-12-05T02:21:05.396Z,26.83
2022-12-05T02:26:38.955Z,28.57
2022-12-05T02:31:53.106Z,25.45
2022-12-05T02:37:12.421Z,24.07
2022-12-05T02:42:50.720Z,25.43
2022-12-05T02:47:54.797Z,24.20
2022-12-05T02:53:00.521Z,26.13
2022-12-05T02:58:07.205Z,28.07
2022-12-05T03:03:16.948Z,25.47
2022-12-05T03:08:24.106Z,27.07
2022-12-05T03:13:31.827Z,18.90
2022-12-05T03:18:43.785Z,23.10
2022-12-05T03:23:53.018Z,23.40
2022-12-05T03:29:22.443Z,25.73
2022-12-05T03:34:57.437Z,28.63
2022-12-05T03:45:35.725Z,27.23
2022-12-05T03:50:41.448Z,26.23
2022-12-05T03:55:45.749Z,25.90
2022-12-05T04:00:51.010Z,25.90
2022-12-05T04:05:56.304Z,29.33
2022-12-05T04:11:03.440Z,27.33
2022-12-05T04:16:29.191Z,26.20
2022-12-05T04:21:40.404Z,27.90
2022-12-05T04:26:46.949Z,22.73
2022-12-05T04:31:56.414Z,26.93
2022-12-05T04:37:12.592Z,31.40
2022-12-05T04:42:19.327Z,28.97
2022-12-05T04:47:26.808Z,28.17
2022-12-05T04:52:30.629Z,31.73
2022-12-05T04:58:11.212Z,25.40
2022-12-05T05:03:23.640Z,29.23
2022-12-05T05:08:31.323Z,31.92
2022-12-05T05:13:33.467Z,32.57
2022-12-05T05:18:35.532Z,28.83
2022-12-05T05:23:38.047Z,33.25
2022-12-05T05:28:40.552Z,32.38
2022-12-05T05:33:42.863Z,38.42
2022-12-05T05:38:47.800Z,39.33
2022-12-05T05:43:51.437Z,36.93
2022-12-05T05:48:54.029Z,34.13
2022-12-05T05:59:01.496Z,43.00
2022-12-05T06:04:03.872Z,41.93
2022-12-05T06:14:09.662Z,46.33
2022-12-05T06:24:13.728Z,48.03
2022-12-05T06:29:15.881Z,35.92
2022-12-05T06:34:17.979Z,52.13
2022-12-05T06:39:20.116Z,42.20
2022-12-05T06:44:22.361Z,54.67
2022-12-05T06:49:31.576Z,48.58
2022-12-05T06:54:34.830Z,61.95
2022-12-05T06:59:36.859Z,49.67
2022-12-05T07:04:39.113Z,43.72
2022-12-05T07:09:51.194Z,51.42
2022-12-05T07:14:53.415Z,44.03
2022-12-05T07:19:55.724Z,51.58
2022-12-05T07:30:00.336Z,46.07
2022-12-05T07:35:02.935Z,44.50
2022-12-05T07:40:05.817Z,42.20
2022-12-05T07:45:08.790Z,43.37
2022-12-05T07:50:11.071Z,42.15
2022-12-05T07:55:13.103Z,42.42
2022-12-05T08:00:15.913Z,39.95
2022-12-05T08:05:18.057Z,40.17
2022-12-05T08:10:20.204Z,40.47
2022-12-05T08:15:22.312Z,38.83
2022-12-05T08:20:24.503Z,39.22
2022-12-05T08:25:27.039Z,40.08
2022-12-05T08:35:31.279Z,37.25
2022-12-05T08:40:33.349Z,40.80
2022-12-05T08:45:35.492Z,40.33
2022-12-05T08:50:39.207Z,40.35
2022-12-05T08:55:41.784Z,28.70
2022-12-05T09:00:43.807Z,32.03
2022-12-05T09:05:45.851Z,39.92
2022-12-05T09:10:47.877Z,37.38
2022-12-05T09:15:50.076Z,35.08
2022-12-05T09:20:52.166Z,26.10
2022-12-05T09:25:57.951Z,38.13
2022-12-05T09:31:02.711Z,40.35
2022-12-05T09:36:12.179Z,31.45
2022-12-05T09:42:04.729Z,48.95
2022-12-05T09:47:21.231Z,43.35
2022-12-05T09:52:38.576Z,44.30
2022-12-05T09:57:50.828Z,42.20
2022-12-05T10:03:20.837Z,35.77
2022-12-05T10:08:32.588Z,38.20
2022-12-05T10:13:58.425Z,41.95
2022-12-05T10:19:10.883Z,35.60
2022-12-05T10:24:17.357Z,27.80
2022-12-05T10:29:35.430Z,35.50
2022-12-05T10:34:42.672Z,33.50
2022-12-05T10:39:46.514Z,32.90
2022-12-05T10:44:50.819Z,28.15
2022-12-05T10:49:54.096Z,33.05
2022-12-05T10:55:02.746Z,30.90
2022-12-05T11:00:13.554Z,29.80
2022-12-05T11:05:28.444Z,27.30
2022-12-05T11:10:38.816Z,27.40
2022-12-05T11:15:49.393Z,28.55
2022-12-05T11:20:54.763Z,25.27
2022-12-05T11:25:58.251Z,27.70
2022-12-05T11:31:02.695Z,28.73
2022-12-05T11:36:23.627Z,28.30
2022-12-05T11:41:38.430Z,29.33
2022-12-05T11:46:56.508Z,30.13
2022-12-05T11:52:07.191Z,30.50
2022-12-05T11:57:24.207Z,26.43
2022-12-05T12:02:49.003Z,23.73
2022-12-05T12:08:15.548Z,35.90
2022-12-05T12:13:55.198Z,31.70
2022-12-05T12:18:57.186Z,24.73
2022-12-05T12:24:05.646Z,35.75
2022-12-05T12:29:24.173Z,25.30
2022-12-05T12:34:43.982Z,31.37
2022-12-05T12:40:20.850Z,27.30
2022-12-05T12:45:50.940Z,25.87
2022-12-05T12:50:54.765Z,26.95
2022-12-05T12:56:41.963Z,27.00
2022-12-05T13:01:53.259Z,21.80
2022-12-05T13:07:06.098Z,20.67
2022-12-05T13:12:12.859Z,24.33
2022-12-05T13:17:19.078Z,22.25
2022-12-05T13:22:23.907Z,24.30
2022-12-05T13:27:28.282Z,14.40
2022-12-05T13:32:37.098Z,8.45
2022-12-05T13:38:06.354Z,8.27
2022-12-05T13:43:09.935Z,8.00
2022-12-05T13:48:23.690Z,5.85
2022-12-05T13:53:35.224Z,4.70
2022-12-05T13:58:47.062Z,5.33
2022-12-05T14:03:49.529Z,4.27
2022-12-05T14:08:53.979Z,2.90
2022-12-05T14:14:00.731Z,2.73
2022-12-05T14:19:35.534Z,2.63
2022-12-05T14:24:46.523Z,3.33
2022-12-05T14:30:15.681Z,2.50
2022-12-05T14:35:30.009Z,1.90
2022-12-05T14:40:32.744Z,1.50
2022-12-05T14:45:55.854Z,2.15
2022-12-05T14:50:59.751Z,1.62
2022-12-05T14:56:25.013Z,9.40
2022-12-05T15:01:45.447Z,8.63
2022-12-05T15:06:54.203Z,5.05
2022-12-05T15:11:57.455Z,7.60
2022-12-05T15:17:01.727Z,6.00
2022-12-05T15:22:07.202Z,2.25
2022-12-05T15:27:11.927Z,4.00
2022-12-05T15:32:21.156Z,3.60
2022-12-05T15:37:48.246Z,5.30
2022-12-05T15:42:55.894Z,13.05
2022-12-05T15:48:22.967Z,6.75
2022-12-05T15:53:34.642Z,5.60
2022-12-05T15:58:58.747Z,5.00
2022-12-05T16:04:12.586Z,3.95
2022-12-05T16:09:21.185Z,5.45
2022-12-05T16:19:48.658Z,4.35
2022-12-05T16:30:17.458Z,3.90
2022-12-05T16:35:41.014Z,9.17
2022-12-05T16:45:49.531Z,2.10
2022-12-05T16:51:12.294Z,4.20
2022-12-05T16:56:27.778Z,3.33
2022-12-05T17:01:34.269Z,1.85
2022-12-05T17:06:39.714Z,2.63
2022-12-05T17:11:45.153Z,4.30
2022-12-05T17:16:47.988Z,17.65
2022-12-05T17:21:50.354Z,20.95
2022-12-05T17:26:52.402Z,2.67
2022-12-05T17:31:54.514Z,2.60
2022-12-05T17:36:56.647Z,4.03
2022-12-05T17:41:58.789Z,1.87
2022-12-05T17:47:07.550Z,1.85
2022-12-05T17:52:26.874Z,2.55
2022-12-05T17:57:29.496Z,1.35
2022-12-05T18:02:31.501Z,1.62
2022-12-05T18:07:33.608Z,1.85
2022-12-05T18:12:35.862Z,0.70
2022-12-05T18:17:38.699Z,4.93
2022-12-05T18:22:41.124Z,11.15
2022-12-05T18:27:43.157Z,7.60
2022-12-05T18:32:45.292Z,4.00
2022-12-05T18:37:47.311Z,6.97
2022-12-05T18:42:49.365Z,5.47
2022-12-05T18:47:54.671Z,6.70
2022-12-05T18:52:59.504Z,6.55
2022-12-05T18:58:01.571Z,10.32
2022-12-05T19:03:09.131Z,5.60
2022-12-05T19:08:11.523Z,5.25
2022-12-05T19:13:17.917Z,4.15
2022-12-05T19:18:19.986Z,4.90
2022-12-05T19:23:22.094Z,5.70
2022-12-05T19:28:24.156Z,7.87
2022-12-05T19:33:30.820Z,7.22
2022-12-05T19:38:34.881Z,5.60
2022-12-05T19:43:38.082Z,7.65
2022-12-05T19:48:40.491Z,4.35
2022-12-05T19:53:43.876Z,4.68
2022-12-05T19:58:46.928Z,3.75
2022-12-05T20:03:54.822Z,5.30
2022-12-05T20:08:59.248Z,4.85
2022-12-05T20:14:02.142Z,8.60
2022-12-05T20:19:05.034Z,14.05
2022-12-05T20:24:08.289Z,8.95
2022-12-05T20:29:10.815Z,6.85
2022-12-05T20:34:15.006Z,11.15
2022-12-05T20:39:17.675Z,15.25
2022-12-05T20:49:21.833Z,20.30
2022-12-05T20:54:23.923Z,8.50
2022-12-05T20:59:26.419Z,5.80
2022-12-05T21:04:28.579Z,7.12
2022-12-05T21:09:31.743Z,10.93
2022-12-05T21:14:34.297Z,10.20
2022-12-05T21:24:39.428Z,6.40
2022-12-05T21:29:42.773Z,6.18
2022-12-05T21:34:44.886Z,4.60
2022-12-05T21:39:46.983Z,9.18
2022-12-05T21:44:49.094Z,6.07
2022-12-05T21:49:51.159Z,3.37
2022-12-05T21:54:53.283Z,3.50
2022-12-05T21:59:55.296Z,6.35
2022-12-05T22:04:57.305Z,3.00
2022-12-05T22:09:59.568Z,3.90
2022-12-05T22:20:04.669Z,3.75
2022-12-05T22:25:06.914Z,9.85
2022-12-05T22:30:09.292Z,6.47
2022-12-05T22:35:11.330Z,4.30
2022-12-05T22:40:13.433Z,4.70
2022-12-05T22:45:15.445Z,4.75
2022-12-05T22:50:17.522Z,3.87
2022-12-05T22:55:19.614Z,6.50
2022-12-05T23:00:21.666Z,6.68
2022-12-05T23:05:23.795Z,4.65
2022-12-05T23:10:25.920Z,3.83
2022-12-05T23:15:28.048Z,3.65
2022-12-05T23:20:31.009Z,3.10
2022-12-05T23:25:33.208Z,1.92
2022-12-05T23:30:35.291Z,2.20
2022-12-05T23:35:37.326Z,2.92
2022-12-05T23:40:39.340Z,2.08
2022-12-05T23:45:41.552Z,2.33
2022-12-05T23:50:44.028Z,2.92
2022-12-05T23:55:46.129Z,6.05
